EPKT/KTW METAR and TAF weather

Enter ICAO airport designator
Station Type Date Time Source
EPKT METAR 2022/01/26 07:00 UTC NOAA

EPKT 260700Z 27010KT 2400 -DZ BR OVC002 01/00 Q1024


Station Type Date Time Source
EPKT Decoded METAR 2022/01/26 07:00 UTC NOAA

Katowice, Poland (EPKT) 50-14N 019-02E 284M
Jan 26, 2022 - 02:00 AM EST / 2022.01.26 0700 UTC
Wind: from the W (270 degrees) at 12 MPH (10 KT):0
Visibility: 1 mile(s):0
Sky conditions: overcast
Weather: light drizzle; mist
Temperature: 33 F (1 C)
Windchill: 24 F (-4 C):1
Dew Point: 32 F (0 C)
Relative Humidity: 93%
Pressure (altimeter): 30.24 in. Hg (1024 hPa)
ob: EPKT 260700Z 27010KT 2400 -DZ BR OVC002 01/00 Q1024
cycle: 7

Station Type Date Time Source
EPKT TAF 2022/01/26 06:33 UTC NOAA

TAF EPKT 260530Z 2606/2706 27010KT 5000 BR OVC002
TEMPO 2606/2616 2500 -SN -SNRA BR
BECMG 2609/2612 OVC005
TEMPO 2616/2622 BKN016
BECMG 2622/2624 3000 -SN BR OVC004
TEMPO 2700/2706 2600 -SN BR

Example: see airport list